Aviation Digital Data Service (ADDS)

Output produced by METARs form (0124 UTC 23 July 2017)
found at http://www.aviationweather.gov/adds/metars/
 
TAF SYCJ 222300Z 2300/2324 VRB06KT 9999 TS FEW013 CB BKN015 BKN034 
     BECMG 2305/2307 0600 TS +SHRA FEW007CB BKN009 OVC030 
     BECMG 2315/2318 9999 FEW010CB BKN014 BKN037